Geneva, Switzerland

1:14 PM CET on December 04, 2016 (GMT +0100)
Cointrin | | Change Station

Elev 1378 ft 46.25 °N, 6.13 °E | Updated 24 minutes ago

Overcast
Overcast
37 °F
Feels Like 34 °F
N
5
Wind Variable Wind from NNE

Today
High -- | Low -- °F
--% Chance of Precip.
Yesterday
High -- | Low -- °F
Precip. -- in
Pressure 30.24 in
Visibility 5.0 miles
Clouds Overcast 1400 ft
Windchill 34 °F
Dew Point 32 °F
Humidity 81%
Rainfall 0.00 in
Snow Depth Not available.
8:01 AM 4:49 PM
Waxing Crescent, 22% visible
METAR LSGG 041150Z 02004KT 350V080 8000 OVC014 03/00 Q1024 NOSIG
Pressure 30.24 in
Visibility 5.0 miles
Clouds Overcast 1400 ft
Windchill 34 °F
Dew Point 32 °F
Humidity 81%
Rainfall 0.00 in
Snow Depth Not available.
8:01 AM 4:49 PM
Waxing Crescent, 22% visible
METAR LSGG 041150Z 02004KT 350V080 8000 OVC014 03/00 Q1024 NOSIG

10-Day Weather Forecast

×

Almanac

Astronomy

Dec. 04, 2016 Rise Set
Actual Time
Civil Twilight
Nautical Twilight
Astronomical Twilight
Moon
Length of Visible Light
Length of Day
Tomorrow will be .
, % of the Moon is Illuminated

Today's Extremes

Country Highs Country Lows

Community

WunderPhotos

Upload Photos

1,955,591 photos uploaded!

WunderBlog® & News

Nearby

Air Quality

  Air Quality AQ Index Pollutant
Not available.

Snow Depth

Station Depth Elevation

Earthquake Activity

City Distance Mag. Time & Date
Minimum magnitude displayed is 2.5.

Coastal Water Temperatures

Place Temperature

Stations

Nearby Weather Stations

Station Location Temp. Windchill Dew Point Humidity Wind Precip. Elev Updated Type